createdAt,value
2022-09-28T00:01:20.231Z,13.67
2022-09-28T00:03:48.694Z,13.67
2022-09-28T00:06:18.815Z,13.65
2022-09-28T00:08:46.116Z,13.66
2022-09-28T00:11:15.718Z,13.68
2022-09-28T00:13:44.055Z,13.71
2022-09-28T00:16:17.372Z,13.76
2022-09-28T00:18:44.994Z,13.78
2022-09-28T00:21:17.587Z,13.79
2022-09-28T00:24:04.008Z,13.68
2022-09-28T00:26:33.034Z,13.57
2022-09-28T00:29:01.978Z,13.55
2022-09-28T00:31:32.924Z,13.53
2022-09-28T00:34:02.002Z,13.54
2022-09-28T00:36:30.445Z,13.56
2022-09-28T00:38:58.356Z,13.58
2022-09-28T00:41:27.189Z,13.59
2022-09-28T00:44:15.294Z,13.58
2022-09-28T00:46:42.386Z,13.56
2022-09-28T00:49:14.937Z,13.56
2022-09-28T00:51:44.041Z,13.55
2022-09-28T00:54:12.823Z,13.54
2022-09-28T00:56:43.165Z,13.54
2022-09-28T00:59:11.086Z,13.59
2022-09-28T01:01:38.478Z,13.73
2022-09-28T01:04:07.342Z,13.52
2022-09-28T01:06:36.605Z,13.45
2022-09-28T01:09:07.700Z,13.46
2022-09-28T01:11:36.233Z,13.48
2022-09-28T01:14:08.780Z,13.75
2022-09-28T01:17:15.480Z,13.47
2022-09-28T01:20:47.517Z,13.13
2022-09-28T01:23:53.415Z,12.76
2022-09-28T01:27:14.131Z,12.69
2022-09-28T01:29:55.515Z,12.62
2022-09-28T01:32:35.784Z,12.46
2022-09-28T01:35:11.748Z,12.43
2022-09-28T01:37:57.112Z,12.44
2022-09-28T01:40:27.969Z,12.45
2022-09-28T01:43:01.265Z,12.44
2022-09-28T01:45:38.765Z,12.43
2022-09-28T01:48:08.762Z,12.56
2022-09-28T01:50:41.333Z,12.55
2022-09-28T01:53:23.354Z,12.54
2022-09-28T01:55:57.831Z,12.52
2022-09-28T01:58:34.875Z,12.39
2022-09-28T02:01:06.522Z,12.32
2022-09-28T02:03:57.415Z,12.28
2022-09-28T02:06:36.562Z,12.29
2022-09-28T02:09:10.799Z,12.21
2022-09-28T02:11:46.701Z,12.19
2022-09-28T02:14:17.758Z,12.21
2022-09-28T02:16:50.770Z,12.30
2022-09-28T02:19:26.883Z,12.27
2022-09-28T02:22:33.775Z,12.26
2022-09-28T02:25:22.694Z,12.22
2022-09-28T02:27:58.693Z,12.21
2022-09-28T02:30:27.284Z,12.14
2022-09-28T02:32:58.246Z,12.10
2022-09-28T02:35:25.664Z,12.08
2022-09-28T02:37:55.138Z,12.10
2022-09-28T02:40:25.610Z,12.17
2022-09-28T02:43:34.376Z,12.25
2022-09-28T02:46:43.023Z,12.29
2022-09-28T02:49:37.513Z,12.31
2022-09-28T02:52:50.851Z,12.30
2022-09-28T02:55:48.986Z,12.32
2022-09-28T02:58:49.358Z,12.32
2022-09-28T03:02:00.216Z,12.38
2022-09-28T03:05:06.197Z,12.35
2022-09-28T03:07:40.146Z,12.23
2022-09-28T03:10:20.542Z,12.08
2022-09-28T03:12:49.361Z,12.04
2022-09-28T03:15:24.566Z,12.06
2022-09-28T03:17:52.763Z,12.05
2022-09-28T03:20:20.688Z,12.04
2022-09-28T03:23:05.910Z,12.12
2022-09-28T03:25:34.931Z,12.14
2022-09-28T03:28:02.724Z,12.20
2022-09-28T03:30:33.079Z,12.26
2022-09-28T03:33:00.936Z,12.27
2022-09-28T03:35:30.373Z,12.34
2022-09-28T03:37:57.626Z,12.33
2022-09-28T03:40:27.356Z,12.30
2022-09-28T03:42:54.436Z,12.30
2022-09-28T03:45:21.733Z,12.30
2022-09-28T03:47:50.693Z,12.31
2022-09-28T03:50:19.005Z,12.30
2022-09-28T03:52:46.122Z,12.36
2022-09-28T03:55:13.153Z,12.37
2022-09-28T03:57:40.239Z,12.38
2022-09-28T04:00:08.238Z,12.44
2022-09-28T04:02:40.695Z,12.53
2022-09-28T04:05:09.401Z,12.62
2022-09-28T04:07:37.938Z,12.67
2022-09-28T04:10:05.278Z,12.71
2022-09-28T04:12:32.845Z,12.78
2022-09-28T04:14:59.823Z,12.83
2022-09-28T04:17:26.956Z,12.88
2022-09-28T04:19:54.971Z,12.96
2022-09-28T04:22:40.105Z,13.06
2022-09-28T04:25:07.592Z,12.99
2022-09-28T04:27:53.057Z,12.93
2022-09-28T04:30:20.501Z,13.10
2022-09-28T04:32:47.926Z,13.01
2022-09-28T04:35:15.761Z,13.00
2022-09-28T04:37:42.815Z,12.98
2022-09-28T04:40:10.438Z,13.01
2022-09-28T04:42:38.456Z,13.03
2022-09-28T04:45:06.566Z,13.07
2022-09-28T04:47:37.048Z,13.12
2022-09-28T04:50:29.147Z,13.14
2022-09-28T04:53:14.773Z,13.34
2022-09-28T04:55:42.271Z,13.34
2022-09-28T04:58:09.406Z,13.34
2022-09-28T05:00:37.057Z,13.44
2022-09-28T05:03:28.070Z,13.54
2022-09-28T05:06:28.080Z,13.56
2022-09-28T05:09:00.739Z,13.62
2022-09-28T05:11:27.902Z,13.63
2022-09-28T05:13:55.335Z,13.66
2022-09-28T05:16:22.348Z,13.68
2022-09-28T05:19:07.887Z,13.73
2022-09-28T05:21:35.099Z,13.72
2022-09-28T05:24:07.887Z,13.81
2022-09-28T05:26:37.864Z,13.79
2022-09-28T05:29:07.167Z,13.81
2022-09-28T05:32:03.663Z,13.82
2022-09-28T05:34:51.868Z,13.72
2022-09-28T05:37:25.348Z,13.70
2022-09-28T05:39:56.007Z,13.73
2022-09-28T05:42:23.378Z,13.78
2022-09-28T05:44:50.379Z,13.81
2022-09-28T05:47:17.433Z,13.92
2022-09-28T05:49:44.970Z,14.20
2022-09-28T05:52:12.821Z,14.18
2022-09-28T05:54:40.131Z,14.18
2022-09-28T05:57:07.627Z,14.31
2022-09-28T05:59:37.904Z,14.50
2022-09-28T06:02:07.392Z,14.76
2022-09-28T06:04:34.856Z,14.98
2022-09-28T06:07:01.842Z,14.81
2022-09-28T06:09:28.847Z,14.90
2022-09-28T06:12:20.215Z,14.78
2022-09-28T06:14:55.322Z,14.85
2022-09-28T06:17:23.766Z,14.83
2022-09-28T06:20:11.863Z,14.88
2022-09-28T06:22:56.436Z,14.83
2022-09-28T06:25:27.735Z,14.48
2022-09-28T06:27:59.545Z,14.37
2022-09-28T06:30:28.215Z,14.39
2022-09-28T06:32:57.349Z,14.56
2022-09-28T06:35:26.454Z,14.69
2022-09-28T06:37:54.367Z,14.65
2022-09-28T06:40:22.870Z,14.73
2022-09-28T06:42:58.584Z,14.61
2022-09-28T06:45:44.336Z,14.60
2022-09-28T06:48:33.048Z,14.67
2022-09-28T06:51:02.667Z,14.67
2022-09-28T06:53:59.180Z,14.91
2022-09-28T06:57:02.007Z,15.09
2022-09-28T06:59:31.508Z,15.37
2022-09-28T07:02:00.300Z,15.52
2022-09-28T07:05:00.088Z,15.67
2022-09-28T07:07:45.419Z,15.75
2022-09-28T07:10:50.111Z,15.84
2022-09-28T07:13:48.647Z,15.91
2022-09-28T07:16:22.843Z,16.00
2022-09-28T07:18:54.198Z,16.19
2022-09-28T07:21:29.091Z,16.32
2022-09-28T07:24:00.599Z,16.53
2022-09-28T07:26:50.242Z,16.78
2022-09-28T07:29:36.110Z,16.79
2022-09-28T07:32:35.188Z,16.89
2022-09-28T07:35:16.302Z,17.11
2022-09-28T07:37:49.810Z,17.16
2022-09-28T07:40:35.531Z,17.31
2022-09-28T07:43:07.100Z,17.31
2022-09-28T07:45:38.406Z,17.38
2022-09-28T07:48:05.962Z,17.28
2022-09-28T07:50:42.515Z,17.26
2022-09-28T07:53:16.050Z,17.32
2022-09-28T07:56:08.877Z,17.50
2022-09-28T07:59:02.037Z,17.60
2022-09-28T08:01:49.680Z,17.52
2022-09-28T08:04:17.745Z,17.57
2022-09-28T08:06:48.417Z,17.71
2022-09-28T08:09:15.783Z,17.86
2022-09-28T08:12:15.220Z,18.00
2022-09-28T08:15:02.395Z,18.09
2022-09-28T08:17:47.912Z,18.21
2022-09-28T08:20:34.597Z,18.23
2022-09-28T08:23:06.523Z,18.35
2022-09-28T08:25:36.975Z,18.47
2022-09-28T08:28:09.058Z,18.54
2022-09-28T08:30:45.444Z,18.64
2022-09-28T08:33:33.309Z,18.84
2022-09-28T08:36:19.221Z,18.90
2022-09-28T08:39:06.481Z,18.98
2022-09-28T08:45:28.579Z,19.23
2022-09-28T08:48:33.984Z,19.32
2022-09-28T08:51:31.896Z,19.39
2022-09-28T08:55:00.327Z,19.54
2022-09-28T08:57:45.481Z,19.69
2022-09-28T09:00:22.485Z,19.86
2022-09-28T09:02:49.985Z,19.95
2022-09-28T09:05:30.274Z,20.04
2022-09-28T09:08:39.892Z,20.21
2022-09-28T09:12:06.105Z,20.29
2022-09-28T09:14:57.904Z,20.45
2022-09-28T09:20:50.954Z,20.60
2022-09-28T09:23:56.793Z,20.79
2022-09-28T09:26:39.602Z,20.90
2022-09-28T09:29:44.804Z,21.14
2022-09-28T09:32:41.337Z,21.29
2022-09-28T09:49:01.300Z,21.87
2022-09-28T09:51:48.459Z,22.01
2022-09-28T09:54:28.775Z,22.16
2022-09-28T09:57:13.186Z,22.34
2022-09-28T10:00:04.404Z,22.70
2022-09-28T10:03:03.378Z,22.92
2022-09-28T10:05:39.320Z,23.13
2022-09-28T10:08:18.815Z,23.30
2022-09-28T10:10:55.211Z,23.59
2022-09-28T10:13:26.111Z,23.72
2022-09-28T10:15:55.601Z,23.83
2022-09-28T10:18:31.714Z,24.10
2022-09-28T10:21:20.799Z,24.39
2022-09-28T10:23:58.030Z,24.75
2022-09-28T10:26:37.842Z,24.86
2022-09-28T10:29:15.965Z,25.05
2022-09-28T10:31:51.485Z,25.20
2022-09-28T10:34:48.724Z,25.15
2022-09-28T10:37:19.837Z,25.03
2022-09-28T10:40:40.229Z,24.82
2022-09-28T10:43:27.729Z,25.01
2022-09-28T10:46:08.456Z,25.31
2022-09-28T10:49:01.093Z,25.48
2022-09-28T10:51:45.404Z,25.57
2022-09-28T10:54:19.338Z,25.74
2022-09-28T10:56:49.710Z,25.73
2022-09-28T10:59:37.415Z,25.92
2022-09-28T11:02:37.329Z,26.30
2022-09-28T11:05:22.004Z,26.55
2022-09-28T11:07:52.038Z,26.53
2022-09-28T11:10:32.948Z,26.31
2022-09-28T11:13:10.631Z,26.04
2022-09-28T11:15:43.937Z,25.72
2022-09-28T11:18:22.644Z,25.46
2022-09-28T11:20:50.626Z,25.31
2022-09-28T11:23:31.269Z,25.30
2022-09-28T11:26:09.224Z,25.31
2022-09-28T11:28:38.465Z,25.21
2022-09-28T11:31:12.607Z,25.12
2022-09-28T11:34:05.760Z,25.02
2022-09-28T11:37:37.490Z,25.00
2022-09-28T11:40:55.516Z,24.96
2022-09-28T11:44:08.107Z,24.88
2022-09-28T11:47:33.663Z,24.94
2022-09-28T11:50:26.389Z,24.98
2022-09-28T11:53:13.162Z,25.05
2022-09-28T11:55:54.662Z,25.12
2022-09-28T11:58:56.004Z,25.14
2022-09-28T12:01:44.348Z,25.45
2022-09-28T12:04:37.240Z,26.13
2022-09-28T12:07:16.418Z,26.37
2022-09-28T12:09:57.094Z,26.44
2022-09-28T12:12:32.815Z,26.40
2022-09-28T12:15:13.181Z,26.07
2022-09-28T12:17:51.278Z,25.74
2022-09-28T12:20:31.078Z,25.53
2022-09-28T12:23:47.275Z,25.25
2022-09-28T12:26:37.332Z,25.29
2022-09-28T12:29:24.860Z,25.32
2022-09-28T12:31:58.541Z,25.21
2022-09-28T12:34:25.847Z,25.15
2022-09-28T12:37:37.385Z,25.06
2022-09-28T12:41:02.848Z,24.88
2022-09-28T12:44:07.705Z,24.76
2022-09-28T12:47:18.502Z,24.80
2022-09-28T12:53:53.325Z,24.67
2022-09-28T12:57:05.448Z,24.53
2022-09-28T13:09:20.361Z,24.19
2022-09-28T13:15:16.131Z,24.19
2022-09-28T13:21:16.962Z,24.23
2022-09-28T13:23:50.653Z,24.33
2022-09-28T13:26:50.497Z,24.29
2022-09-28T13:29:21.664Z,24.27
2022-09-28T13:31:56.123Z,24.19
2022-09-28T13:37:26.443Z,23.99
2022-09-28T13:39:56.869Z,23.94
2022-09-28T13:43:00.697Z,23.87
2022-09-28T13:45:54.470Z,23.77
2022-09-28T13:48:37.665Z,23.81
2022-09-28T13:51:49.613Z,23.94
2022-09-28T13:57:41.876Z,24.09
2022-09-28T14:00:26.511Z,24.06
2022-09-28T14:03:04.765Z,23.94
2022-09-28T14:05:47.049Z,23.83
2022-09-28T14:08:48.367Z,23.90
2022-09-28T14:11:59.390Z,24.00
2022-09-28T14:14:52.275Z,24.02
2022-09-28T14:17:51.800Z,24.04
2022-09-28T14:20:21.739Z,23.92
2022-09-28T14:23:25.798Z,23.80
2022-09-28T14:29:37.322Z,23.61
2022-09-28T14:32:21.834Z,23.54
2022-09-28T14:34:57.401Z,23.50
2022-09-28T14:37:52.747Z,23.52
2022-09-28T14:40:50.048Z,23.61
2022-09-28T14:44:07.759Z,23.80
2022-09-28T14:46:46.056Z,24.30
2022-09-28T14:49:48.576Z,24.94
2022-09-28T14:52:19.519Z,25.07
2022-09-28T14:54:54.814Z,25.25
2022-09-28T14:57:29.200Z,25.97
2022-09-28T14:59:59.874Z,27.03
2022-09-28T15:02:32.179Z,28.33
2022-09-28T15:05:24.227Z,30.48
2022-09-28T15:07:53.754Z,31.93
2022-09-28T15:10:39.338Z,31.17
2022-09-28T15:13:19.027Z,30.50
2022-09-28T15:15:50.636Z,31.23
2022-09-28T15:19:01.293Z,32.67
2022-09-28T15:21:32.779Z,33.65
2022-09-28T15:23:59.905Z,34.77
2022-09-28T15:26:31.849Z,35.73
2022-09-28T15:28:59.990Z,36.03
2022-09-28T15:31:30.603Z,36.04
2022-09-28T15:34:16.373Z,35.75
2022-09-28T15:36:47.106Z,34.70
2022-09-28T15:39:19.128Z,33.09
2022-09-28T15:41:48.057Z,31.51
2022-09-28T15:44:33.210Z,30.21
2022-09-28T15:47:25.340Z,29.51
2022-09-28T15:50:28.798Z,28.62
2022-09-28T15:53:04.861Z,27.92
2022-09-28T15:55:45.353Z,27.30
2022-09-28T15:58:23.140Z,26.79
2022-09-28T16:01:11.274Z,26.32
2022-09-28T16:03:38.368Z,25.86
2022-09-28T16:06:09.273Z,25.50
2022-09-28T16:08:42.334Z,25.14
2022-09-28T16:11:25.034Z,24.84
2022-09-28T16:14:02.799Z,24.60
2022-09-28T16:16:34.326Z,24.34
2022-09-28T16:19:02.457Z,24.09
2022-09-28T16:21:51.339Z,23.86
2022-09-28T16:24:21.432Z,23.66
2022-09-28T16:26:54.782Z,23.34
2022-09-28T16:29:43.136Z,23.13
2022-09-28T16:32:49.908Z,22.88
2022-09-28T16:35:49.512Z,22.70
2022-09-28T16:38:18.385Z,22.57
2022-09-28T16:40:50.864Z,22.51
2022-09-28T16:43:30.465Z,22.46
2022-09-28T16:46:00.258Z,22.41
2022-09-28T16:48:29.361Z,22.36
2022-09-28T16:50:57.482Z,22.28
2022-09-28T16:53:44.217Z,22.25
2022-09-28T16:56:12.603Z,22.11
2022-09-28T16:58:39.923Z,22.01
2022-09-28T17:01:10.397Z,21.91
2022-09-28T17:03:37.474Z,21.84
2022-09-28T17:06:08.743Z,21.78
2022-09-28T17:08:36.331Z,21.76
2022-09-28T17:11:24.052Z,21.72
2022-09-28T17:13:52.018Z,21.71
2022-09-28T17:16:37.261Z,21.57
2022-09-28T17:19:22.722Z,21.53
2022-09-28T17:21:51.217Z,21.42
2022-09-28T17:24:20.632Z,21.35
2022-09-28T17:26:50.024Z,21.41
2022-09-28T17:29:17.533Z,21.33
2022-09-28T17:31:46.456Z,21.18
2022-09-28T17:34:18.159Z,21.10
2022-09-28T17:36:45.611Z,21.03
2022-09-28T17:39:14.978Z,20.96
2022-09-28T17:41:41.881Z,20.95
2022-09-28T17:44:08.928Z,20.90
2022-09-28T17:46:46.078Z,20.86
2022-09-28T17:49:13.159Z,20.84
2022-09-28T17:51:40.075Z,20.81
2022-09-28T17:54:08.355Z,20.80
2022-09-28T17:56:36.770Z,20.77
2022-09-28T17:59:10.335Z,20.76
2022-09-28T18:01:39.742Z,20.74
2022-09-28T18:04:09.057Z,20.70
2022-09-28T18:06:39.673Z,20.70
2022-09-28T18:09:06.620Z,20.64
2022-09-28T18:11:33.949Z,20.59
2022-09-28T18:14:01.166Z,20.54
2022-09-28T18:16:29.118Z,20.51
2022-09-28T18:18:56.491Z,20.46
2022-09-28T18:21:23.461Z,20.42
2022-09-28T18:23:50.749Z,20.38
2022-09-28T18:26:19.832Z,20.38
2022-09-28T18:28:47.295Z,20.38
2022-09-28T18:31:15.976Z,20.34
2022-09-28T18:33:43.529Z,20.26
2022-09-28T18:36:10.571Z,20.22
2022-09-28T18:38:38.488Z,20.27
2022-09-28T18:41:17.058Z,20.22
2022-09-28T18:43:49.655Z,20.18
2022-09-28T18:46:18.465Z,20.14
2022-09-28T18:48:46.500Z,20.11
2022-09-28T18:51:14.108Z,20.09
2022-09-28T18:53:41.272Z,20.05
2022-09-28T18:56:10.986Z,20.03
2022-09-28T18:58:39.896Z,20.04
2022-09-28T19:01:31.561Z,20.00
2022-09-28T19:04:00.663Z,19.96
2022-09-28T19:06:28.679Z,19.93
2022-09-28T19:08:57.014Z,19.92
2022-09-28T19:11:24.947Z,19.91
2022-09-28T19:13:53.854Z,19.91
2022-09-28T19:16:24.225Z,19.90
2022-09-28T19:18:53.831Z,19.87
2022-09-28T19:21:21.548Z,19.86
2022-09-28T19:23:53.730Z,19.84
2022-09-28T19:26:24.124Z,19.83
2022-09-28T19:28:51.070Z,19.82
2022-09-28T19:31:18.677Z,19.81
2022-09-28T19:33:46.677Z,19.75
2022-09-28T19:36:23.822Z,19.68
2022-09-28T19:38:52.382Z,19.69
2022-09-28T19:41:44.382Z,19.66
2022-09-28T19:44:27.670Z,19.61
2022-09-28T19:47:11.323Z,19.58
2022-09-28T19:49:40.110Z,19.52
2022-09-28T19:52:16.128Z,19.49
2022-09-28T19:54:57.574Z,19.49
2022-09-28T19:57:26.124Z,19.45
2022-09-28T19:59:56.691Z,19.45
2022-09-28T20:02:26.504Z,19.43
2022-09-28T20:04:53.510Z,19.39
2022-09-28T20:07:20.978Z,19.39
2022-09-28T20:09:48.054Z,19.37
2022-09-28T20:12:14.999Z,19.37
2022-09-28T20:14:41.901Z,19.40
2022-09-28T20:17:09.809Z,19.39
2022-09-28T20:19:36.866Z,19.37
2022-09-28T20:22:04.272Z,19.36
2022-09-28T20:24:31.563Z,19.36
2022-09-28T20:26:59.213Z,19.40
2022-09-28T20:29:26.878Z,19.44
2022-09-28T20:31:53.909Z,19.44
2022-09-28T20:34:20.852Z,19.38
2022-09-28T20:36:48.416Z,19.33
2022-09-28T20:39:15.477Z,19.49
2022-09-28T20:41:42.526Z,19.62
2022-09-28T20:44:10.083Z,19.40
2022-09-28T20:46:37.506Z,19.27
2022-09-28T20:49:05.503Z,19.09
2022-09-28T20:51:32.533Z,19.03
2022-09-28T20:54:00.089Z,18.93
2022-09-28T20:56:37.824Z,18.86
2022-09-28T20:59:10.482Z,18.76
2022-09-28T21:01:38.373Z,18.57
2022-09-28T21:04:07.446Z,18.50
2022-09-28T21:06:36.621Z,18.36
2022-09-28T21:09:04.870Z,18.30
2022-09-28T21:11:33.379Z,18.30
2022-09-28T21:14:02.340Z,18.07
2022-09-28T21:16:32.448Z,17.97
2022-09-28T21:18:59.739Z,17.94
2022-09-28T21:21:27.365Z,17.99
2022-09-28T21:23:56.011Z,17.83
2022-09-28T21:26:25.230Z,17.76
2022-09-28T21:28:58.079Z,17.75
2022-09-28T21:31:29.114Z,17.80
2022-09-28T21:33:57.655Z,17.74
2022-09-28T21:36:25.133Z,17.56
2022-09-28T21:38:53.681Z,17.63
2022-09-28T21:41:20.635Z,17.53
2022-09-28T21:43:47.537Z,17.52
2022-09-28T21:46:14.759Z,17.54
2022-09-28T21:48:41.801Z,17.50
2022-09-28T21:51:12.814Z,17.35
2022-09-28T21:53:39.702Z,17.39
2022-09-28T21:56:10.385Z,17.29
2022-09-28T21:58:37.624Z,17.09
2022-09-28T22:01:12.342Z,17.05
2022-09-28T22:03:39.416Z,16.90
2022-09-28T22:06:07.255Z,16.90
2022-09-28T22:08:35.122Z,16.86
2022-09-28T22:11:08.411Z,16.86
2022-09-28T22:13:40.513Z,16.81
2022-09-28T22:16:08.455Z,16.88
2022-09-28T22:18:35.826Z,16.93
2022-09-28T22:21:12.875Z,16.92
2022-09-28T22:23:40.339Z,17.01
2022-09-28T22:26:13.987Z,17.05
2022-09-28T22:28:49.637Z,17.07
2022-09-28T22:31:18.302Z,16.99
2022-09-28T22:33:48.873Z,16.93
2022-09-28T22:36:16.830Z,16.96
2022-09-28T22:38:45.020Z,17.08
2022-09-28T22:41:12.983Z,17.13
2022-09-28T22:43:40.126Z,17.06
2022-09-28T22:46:09.716Z,17.03
2022-09-28T22:48:36.863Z,17.03
2022-09-28T22:51:06.479Z,17.13
2022-09-28T22:53:34.911Z,17.13
2022-09-28T22:56:05.728Z,17.13
2022-09-28T22:58:36.986Z,17.15
2022-09-28T23:01:11.447Z,17.21
2022-09-28T23:03:42.768Z,17.26
2022-09-28T23:06:11.076Z,17.16
2022-09-28T23:08:39.364Z,17.11
2022-09-28T23:11:06.592Z,17.08
2022-09-28T23:13:34.049Z,17.11
2022-09-28T23:16:08.917Z,17.09
2022-09-28T23:18:38.027Z,16.81
2022-09-28T23:21:06.848Z,16.75
2022-09-28T23:23:33.860Z,16.84
2022-09-28T23:26:09.417Z,16.87
2022-09-28T23:28:36.316Z,16.94
2022-09-28T23:31:18.806Z,16.93
2022-09-28T23:33:46.193Z,16.95
2022-09-28T23:36:13.449Z,16.89
2022-09-28T23:38:40.793Z,16.83
2022-09-28T23:41:08.383Z,16.81
2022-09-28T23:43:36.432Z,16.78
2022-09-28T23:46:04.457Z,16.69
2022-09-28T23:48:31.976Z,16.79
2022-09-28T23:50:59.045Z,16.83
2022-09-28T23:53:26.383Z,16.73
2022-09-28T23:55:54.797Z,16.87
2022-09-28T23:58:21.930Z,16.83
